Sandy City
, Sandy
Last Weather Update:08/30/2011 11:00:00 PM
Date
ETo
ETc
Rain
Irrigation
Req
Temp
Max
Temp
Min
Temp
Avg
Avg RH
Avg Wind
Avg Solar
inches
inches
incehs
inches
F
F
F
%
%
watts/m2
07/01/2011 0.25" 0.20" 0.00" 0.20" 83.9° 58.7° 72.5° 50.9% 0.3 MPH 392.0w/m2
07/02/2011 0.26" 0.21" 0.00" 0.21" 97.8° 60.2° 79.4° 44.2% 0.3 MPH 383.5w/m2
07/03/2011 0.27" 0.22" 0.00" 0.22" 100.7° 66.3° 84.3° 31.1% 0.6 MPH 380.2w/m2
07/04/2011 0.08" 0.07" 0.00" 0.07" 86.3° 72.9° 80.0° 40.2% 0.4 MPH 95.0w/m2
07/05/2011 0.20" 0.16" 0.06" 0.12" 87.0° 68.7° 77.1° 55.4% 0.5 MPH 293.6w/m2
07/06/2011 0.24" 0.19" 0.00" 0.19" 88.1° 62.3° 76.2° 59.4% 0.4 MPH 356.4w/m2
07/07/2011 0.13" 0.11" 0.02" 0.09" 83.9° 68.2° 74.8° 57.7% 0.4 MPH 183.7w/m2
07/08/2011 0.16" 0.13" 0.00" 0.13" 84.6° 64.9° 73.2° 71.0% 0.4 MPH 234.5w/m2
07/09/2011 0.23" 0.19" 0.00" 0.19" 91.1° 59.9° 75.0° 52.8% 0.5 MPH 344.1w/m2
07/10/2011 0.19" 0.16" 0.17" 0.02" 90.0° 61.8° 72.5° 65.3% 0.6 MPH 270.5w/m2
07/11/2011 0.25" 0.20" 0.00" 0.20" 89.8° 63.0° 75.0° 59.0% 0.6 MPH 358.8w/m2
07/12/2011 0.19" 0.16" 0.00" 0.16" 90.1° 69.3° 77.4° 50.6% 0.8 MPH 276.7w/m2
07/13/2011 0.23" 0.19" 0.04" 0.16" 89.4° 68.4° 77.9° 44.2% 0.9 MPH 342.6w/m2
07/14/2011 0.26" 0.22" 0.00" 0.22" 88.7° 64.5° 77.5° 34.3% 0.8 MPH 397.1w/m2
07/15/2011 0.26" 0.22" 0.00" 0.22" 89.8° 61.6° 77.2° 26.6% 0.5 MPH 398.0w/m2
07/16/2011 0.26" 0.23" 0.00" 0.23" 93.8° 58.0° 77.6° 30.4% 0.5 MPH 401.7w/m2
07/17/2011 0.24" 0.20" 0.00" 0.20" 96.9° 63.0° 80.3° 33.8% 0.5 MPH 342.6w/m2
07/18/2011 0.22" 0.19" 0.00" 0.19" 95.2° 73.8° 83.2° 42.7% 0.6 MPH 300.6w/m2
07/19/2011 0.18" 0.16" 0.00" 0.16" 92.9° 74.6° 82.5° 42.0% 0.8 MPH 255.3w/m2
07/20/2011 0.25" 0.21" 0.00" 0.21" 86.8° 60.9° 74.9° 44.3% 0.3 MPH 383.3w/m2
07/21/2011 0.26" 0.22" 0.00" 0.22" 93.8° 59.7° 77.3° 39.1% 0.4 MPH 388.1w/m2
07/22/2011 0.26" 0.23" 0.00" 0.23" 95.0° 67.0° 80.7° 23.8% 0.7 MPH 391.9w/m2
07/23/2011 0.25" 0.22" 0.00" 0.22" 89.0° 59.8° 76.0° 46.7% 0.3 MPH 377.4w/m2
07/24/2011 0.26" 0.23" 0.00" 0.23" 97.9° 61.8° 80.6° 39.6% 0.2 MPH 379.9w/m2
07/25/2011 0.15" 0.13" 0.01" 0.12" 92.2° 65.1° 78.2° 43.8% 0.4 MPH 208.6w/m2
07/26/2011 0.19" 0.17" 0.00" 0.17" 89.8° 71.6° 77.9° 50.5% 1.0 MPH 261.6w/m2
07/27/2011 0.20" 0.18" 0.20" 0.02" 86.5° 65.7° 75.4° 52.9% 0.6 MPH 284.8w/m2
07/28/2011 0.25" 0.22" 0.00" 0.22" 90.8° 61.8° 77.4° 47.3% 0.3 MPH 368.2w/m2
07/29/2011 0.22" 0.20" 0.00" 0.20" 95.2° 61.3° 79.6° 44.6% 0.3 MPH 329.9w/m2
07/30/2011 0.20" 0.18" 0.00" 0.18" 89.9° 68.8° 79.2° 45.1% 0.4 MPH 286.6w/m2
07/31/2011 0.15" 0.13" 0.00" 0.13" 89.3° 68.9° 77.2° 61.6% 0.6 MPH 201.6w/m2
Totals: 6.74" 5.74" 0.50" 5.34" 100.7° 58.0° 77.7° 46.2% 0.5 MPH 318.3w/m2